createdAt,value
2023-05-22T00:01:05.059Z,11.60
2023-05-22T00:06:15.326Z,11.70
2023-05-22T00:11:20.362Z,11.60
2023-05-22T00:16:27.556Z,11.60
2023-05-22T00:21:35.047Z,11.60
2023-05-22T00:26:38.120Z,11.60
2023-05-22T00:31:42.146Z,11.50
2023-05-22T00:36:57.847Z,11.40
2023-05-22T00:42:00.676Z,11.30
2023-05-22T00:47:05.278Z,11.30
2023-05-22T00:52:11.352Z,11.20
2023-05-22T00:57:17.579Z,11.20
2023-05-22T01:02:43.867Z,11.20
2023-05-22T01:07:55.183Z,11.20
2023-05-22T01:13:22.196Z,11.20
2023-05-22T01:18:37.449Z,11.30
2023-05-22T01:24:17.827Z,11.20
2023-05-22T01:29:43.191Z,11.20
2023-05-22T01:34:51.925Z,11.10
2023-05-22T01:39:56.584Z,11.10
2023-05-22T01:45:03.134Z,11.00
2023-05-22T01:50:08.723Z,10.90
2023-05-22T01:55:20.543Z,10.90
2023-05-22T02:00:24.834Z,10.80
2023-05-22T02:05:33.054Z,10.80
2023-05-22T02:10:38.539Z,10.70
2023-05-22T02:15:42.305Z,10.60
2023-05-22T02:20:46.779Z,10.50
2023-05-22T02:25:49.269Z,10.50
2023-05-22T02:30:52.089Z,10.60
2023-05-22T02:35:55.400Z,10.70
2023-05-22T02:41:04.641Z,10.70
2023-05-22T02:46:09.766Z,10.70
2023-05-22T02:51:13.993Z,10.60
2023-05-22T03:01:45.168Z,10.50
2023-05-22T03:06:50.473Z,10.40
2023-05-22T03:11:56.706Z,10.20
2023-05-22T03:17:00.370Z,10.20
2023-05-22T03:22:02.928Z,10.10
2023-05-22T03:27:06.149Z,10.00
2023-05-22T03:32:15.368Z,10.00
2023-05-22T03:37:17.859Z,10.00
2023-05-22T03:42:22.957Z,9.90
2023-05-22T03:47:36.949Z,9.80
2023-05-22T03:52:42.224Z,9.70
2023-05-22T03:57:49.434Z,9.60
2023-05-22T04:03:00.627Z,9.60
2023-05-22T04:08:03.234Z,9.50
2023-05-22T04:13:10.684Z,9.50
2023-05-22T04:18:18.751Z,9.50
2023-05-22T04:23:34.438Z,9.40
2023-05-22T04:28:51.515Z,9.30
2023-05-22T04:33:55.080Z,9.30
2023-05-22T04:39:18.563Z,9.30
2023-05-22T04:44:27.296Z,9.30
2023-05-22T04:49:35.656Z,9.40
2023-05-22T04:55:00.915Z,9.40
2023-05-22T05:00:30.115Z,9.40
2023-05-22T05:05:38.848Z,9.40
2023-05-22T05:10:42.188Z,9.50
2023-05-22T05:15:59.270Z,9.50
2023-05-22T05:21:09.347Z,9.60
2023-05-22T05:26:37.076Z,9.60
2023-05-22T05:37:39.583Z,9.60
2023-05-22T05:43:13.874Z,9.60
2023-05-22T05:48:21.613Z,9.80
2023-05-22T05:53:54.316Z,10.00
2023-05-22T05:59:11.839Z,10.20
2023-05-22T06:04:58.302Z,10.40
2023-05-22T06:10:23.446Z,10.60
2023-05-22T06:26:45.994Z,13.90
2023-05-22T06:32:02.739Z,15.40
2023-05-22T06:43:07.815Z,17.00
2023-05-22T06:48:22.472Z,17.40
2023-05-22T06:53:43.329Z,17.90
2023-05-22T06:58:50.512Z,18.10
2023-05-22T07:03:54.454Z,18.10
2023-05-22T07:09:11.842Z,18.10
2023-05-22T07:14:15.564Z,18.00
2023-05-22T07:19:19.451Z,17.80
2023-05-22T07:24:52.586Z,18.40
2023-05-22T07:30:16.292Z,18.90
2023-05-22T07:35:21.205Z,19.00
2023-05-22T07:40:26.579Z,18.70
2023-05-22T07:45:31.490Z,18.70
2023-05-22T07:50:36.945Z,19.20
2023-05-22T07:55:42.912Z,19.50
2023-05-22T08:00:51.340Z,19.40
2023-05-22T08:05:54.207Z,20.00
2023-05-22T08:11:04.023Z,19.60
2023-05-22T08:16:24.355Z,19.40
2023-05-22T08:21:28.820Z,19.10
2023-05-22T08:26:32.207Z,18.40
2023-05-22T08:31:44.818Z,18.10
2023-05-22T08:36:47.329Z,17.50
2023-05-22T08:41:53.650Z,17.80
2023-05-22T08:47:26.854Z,17.90
2023-05-22T08:52:50.699Z,17.70
2023-05-22T08:57:54.866Z,17.90
2023-05-22T09:02:58.243Z,17.60
2023-05-22T09:08:15.916Z,17.90
2023-05-22T09:13:29.830Z,18.20
2023-05-22T09:18:32.392Z,17.90
2023-05-22T09:23:38.797Z,17.80
2023-05-22T09:28:41.115Z,18.10
2023-05-22T09:33:45.120Z,18.30
2023-05-22T09:38:47.978Z,18.30
2023-05-22T09:43:51.145Z,18.40
2023-05-22T09:48:55.418Z,18.60
2023-05-22T09:54:06.416Z,18.80
2023-05-22T09:59:10.048Z,18.60
2023-05-22T10:04:19.098Z,18.70
2023-05-22T10:09:33.024Z,18.90
2023-05-22T10:14:36.730Z,19.30
2023-05-22T10:19:42.838Z,19.30
2023-05-22T10:24:48.324Z,18.90
2023-05-22T10:30:08.372Z,19.30
2023-05-22T10:35:25.009Z,19.30
2023-05-22T10:40:32.074Z,19.20
2023-05-22T10:45:37.101Z,19.00
2023-05-22T10:50:40.707Z,19.60
2023-05-22T10:55:54.270Z,19.70
2023-05-22T11:01:18.499Z,19.70
2023-05-22T11:06:43.512Z,19.60
2023-05-22T11:11:47.059Z,19.60
2023-05-22T11:16:53.320Z,19.80
2023-05-22T11:22:01.454Z,19.70
2023-05-22T11:27:07.957Z,20.40
2023-05-22T11:32:15.738Z,20.50
2023-05-22T11:37:19.151Z,20.30
2023-05-22T11:42:21.524Z,19.90
2023-05-22T11:47:25.282Z,19.70
2023-05-22T11:52:33.541Z,19.70
2023-05-22T11:57:38.658Z,20.30
2023-05-22T12:02:50.005Z,19.90
2023-05-22T12:07:52.807Z,19.80
2023-05-22T12:12:55.197Z,20.00
2023-05-22T12:17:57.786Z,20.20
2023-05-22T12:23:05.728Z,20.10
2023-05-22T12:28:07.913Z,19.60
2023-05-22T12:33:14.976Z,19.80
2023-05-22T12:38:20.242Z,20.30
2023-05-22T12:43:25.218Z,19.90
2023-05-22T12:48:27.529Z,19.60
2023-05-22T12:53:33.715Z,19.50
2023-05-22T12:58:37.751Z,19.80
2023-05-22T13:03:40.225Z,19.60
2023-05-22T13:08:51.065Z,19.40
2023-05-22T13:13:55.216Z,19.20
2023-05-22T13:18:57.552Z,18.90
2023-05-22T13:24:00.269Z,19.20
2023-05-22T13:29:02.757Z,19.10
2023-05-22T13:34:07.346Z,19.10
2023-05-22T13:39:09.600Z,19.00
2023-05-22T13:44:11.969Z,18.80
2023-05-22T13:49:14.823Z,19.10
2023-05-22T13:54:19.321Z,19.40
2023-05-22T13:59:22.408Z,19.90
2023-05-22T14:04:24.864Z,20.10
2023-05-22T14:09:27.514Z,20.00
2023-05-22T14:14:36.454Z,19.80
2023-05-22T14:19:39.453Z,19.70
2023-05-22T14:24:42.145Z,19.60
2023-05-22T14:29:44.628Z,19.60
2023-05-22T14:34:47.061Z,20.00
2023-05-22T14:39:51.128Z,19.90
2023-05-22T14:44:53.330Z,20.20
2023-05-22T14:50:03.135Z,19.60
2023-05-22T14:55:18.286Z,18.90
2023-05-22T15:00:20.824Z,18.30
2023-05-22T15:05:23.353Z,18.10
2023-05-22T15:10:26.282Z,18.10
2023-05-22T15:15:28.733Z,18.10
2023-05-22T15:20:33.670Z,18.40
2023-05-22T15:25:59.216Z,18.50
2023-05-22T15:31:03.149Z,18.20
2023-05-22T15:36:06.576Z,18.20
2023-05-22T15:41:08.835Z,18.30
2023-05-22T15:46:14.507Z,18.80
2023-05-22T15:51:21.344Z,19.40
2023-05-22T15:56:27.518Z,19.50
2023-05-22T16:01:30.837Z,19.90
2023-05-22T16:06:33.206Z,19.70
2023-05-22T16:11:35.918Z,20.00
2023-05-22T16:16:38.191Z,19.40
2023-05-22T16:21:40.610Z,19.80
2023-05-22T16:26:43.162Z,19.60
2023-05-22T16:31:46.087Z,19.90
2023-05-22T16:36:50.394Z,19.60
2023-05-22T16:41:54.081Z,19.60
2023-05-22T16:46:56.591Z,19.60
2023-05-22T16:51:58.901Z,19.90
2023-05-22T16:57:01.165Z,20.10
2023-05-22T17:02:06.887Z,20.30
2023-05-22T17:07:09.059Z,20.10
2023-05-22T17:12:11.536Z,20.10
2023-05-22T17:17:15.002Z,19.40
2023-05-22T17:22:17.837Z,19.30
2023-05-22T17:27:34.381Z,19.40
2023-05-22T17:32:38.220Z,18.80
2023-05-22T17:37:40.812Z,18.80
2023-05-22T17:42:44.984Z,18.60
2023-05-22T17:47:50.326Z,18.80
2023-05-22T17:52:52.660Z,18.60
2023-05-22T17:57:55.065Z,18.30
2023-05-22T18:02:57.464Z,18.30
2023-05-22T18:08:00.833Z,18.30
2023-05-22T18:13:03.136Z,18.10
2023-05-22T18:18:05.626Z,18.00
2023-05-22T18:23:07.934Z,17.80
2023-05-22T18:28:10.238Z,17.80
2023-05-22T18:33:12.732Z,17.60
2023-05-22T18:38:15.167Z,17.40
2023-05-22T18:43:17.447Z,17.10
2023-05-22T18:48:20.420Z,16.80
2023-05-22T18:53:30.300Z,16.60
2023-05-22T18:58:32.531Z,16.50
2023-05-22T19:03:35.011Z,16.50
2023-05-22T19:08:37.200Z,16.40
2023-05-22T19:13:41.285Z,16.30
2023-05-22T19:18:43.545Z,16.10
2023-05-22T19:23:46.163Z,15.90
2023-05-22T19:28:48.434Z,15.80
2023-05-22T19:33:50.608Z,15.60
2023-05-22T19:38:56.277Z,15.40
2023-05-22T19:43:59.045Z,15.30
2023-05-22T19:49:01.492Z,15.30
2023-05-22T19:54:05.190Z,15.10
2023-05-22T19:59:15.975Z,14.90
2023-05-22T20:04:18.257Z,14.70
2023-05-22T20:09:23.918Z,14.60
2023-05-22T20:14:26.160Z,14.60
2023-05-22T20:19:28.685Z,14.60
2023-05-22T20:24:33.608Z,14.60
2023-05-22T20:29:43.222Z,14.40
2023-05-22T20:34:50.176Z,14.40
2023-05-22T20:39:52.376Z,14.40
2023-05-22T20:44:56.246Z,14.50
2023-05-22T20:50:06.368Z,14.60
2023-05-22T20:55:17.722Z,14.70
2023-05-22T21:00:20.144Z,14.80
2023-05-22T21:05:24.767Z,14.80
2023-05-22T21:10:27.299Z,14.80
2023-05-22T21:20:47.823Z,14.80
2023-05-22T21:25:51.664Z,14.80
2023-05-22T21:30:54.191Z,14.90
2023-05-22T21:35:56.529Z,14.80
2023-05-22T21:40:59.065Z,14.80
2023-05-22T21:46:02.216Z,14.80
2023-05-22T21:51:05.080Z,14.70
2023-05-22T21:56:08.317Z,14.70
2023-05-22T22:01:17.688Z,14.70
2023-05-22T22:06:19.837Z,14.70
2023-05-22T22:11:23.454Z,14.70
2023-05-22T22:16:26.220Z,14.70
2023-05-22T22:21:28.971Z,14.70
2023-05-22T22:26:33.107Z,14.70
2023-05-22T22:31:35.867Z,14.60
2023-05-22T22:36:38.104Z,14.60
2023-05-22T22:41:40.333Z,14.50
2023-05-22T22:46:42.965Z,14.50
2023-05-22T22:51:45.186Z,14.30
2023-05-22T22:56:49.482Z,14.20
2023-05-22T23:01:51.775Z,14.20
2023-05-22T23:06:54.199Z,14.10
2023-05-22T23:11:56.403Z,14.00
2023-05-22T23:16:58.605Z,13.90
2023-05-22T23:22:00.857Z,13.80
2023-05-22T23:27:03.496Z,13.70
2023-05-22T23:32:06.074Z,13.50
2023-05-22T23:37:08.614Z,13.40
2023-05-22T23:42:11.020Z,13.40
2023-05-22T23:47:13.492Z,13.30
2023-05-22T23:52:16.138Z,13.30
2023-05-22T23:57:18.557Z,13.10
